Time;durP1;ratioP1;P1;durP2;ratioP2;P2;SDS_P1;SDS_P2;PMS_P1;PMS_P2;Temp;Humidity;BMP_temperature;BMP_pressure;BME280_temperature;BME280_humidity;BME280_pressure;Samples;Min_cycle;Max_cycle;Signal;HPM_P1;HPM_P2
2022/04/28 00:00:20;;;;;;;;;;;;;;;18.35;54.28;101403.91;4736725;30;19923;-72
2022/04/28 00:03:05;;;;;;;;;;;;;;;18.34;53.98;101410.53;4748374;30;20391;-72
2022/04/28 00:05:49;;;;;;;;;;;;;;;18.28;54.08;101411.16;4739322;30;19922;-72
2022/04/28 00:08:34;;;;;;;;;;;;;;;18.10;49.98;101412.59;4735775;30;19923;-72
2022/04/28 00:11:18;;;;;;;;;;;;;;;17.97;49.21;101416.53;4736464;30;19922;-72
2022/04/28 00:14:03;;;;;;;;;;;;;;;18.09;52.43;101416.47;4754051;30;20311;-72
2022/04/28 00:16:47;;;;;;;;;;;;;;;17.83;49.07;101414.13;4754214;30;19922;-72
2022/04/28 00:19:32;;;;;;;;;;;;;;;17.73;48.82;101409.91;4753741;30;20399;-71
2022/04/28 00:22:17;;;;;;;;;;;;;;;17.70;50.02;101410.63;4753256;30;19926;-71
2022/04/28 00:25:02;;;;;;;;;;;;;;;17.53;48.78;101413.56;4752151;30;20396;-71
2022/04/28 00:27:46;;;;;;;;;;;;;;;17.54;48.78;101409.69;4753864;30;20307;-72
2022/04/28 00:30:31;;;;;;;;;;;;;;;17.77;51.62;101410.84;4754084;30;19922;-72
2022/04/28 00:33:15;;;;;;;;;;;;;;;17.90;53.46;101417.94;4753446;30;20374;-72
2022/04/28 00:36:00;;;;;;;;;;;;;;;17.97;53.70;101411.03;4753619;30;19923;-72
2022/04/28 00:38:45;;;;;;;;;;;;;;;17.96;54.36;101410.22;4753898;30;19922;-72
2022/04/28 00:41:29;;;;;;;;;;;;;;;17.98;54.49;101410.66;4753341;30;19922;-72
2022/04/28 00:44:13;;;;;;;;;;;;;;;17.97;54.58;101411.03;4748054;30;20306;-72
2022/04/28 00:46:58;;;;;;;;;;;;;;;18.00;54.81;101411.13;4753426;30;19923;-72
2022/04/28 00:52:46;;;;;;;;;;;;;;;17.72;51.28;101413.84;4753220;30;19934;-72
2022/04/28 00:55:30;;;;;;;;;;;;;;;17.74;51.95;101422.53;4753283;30;20395;-72
2022/04/28 00:58:15;;;;;;;;;;;;;;;17.82;53.53;101420.81;4748002;30;19922;-72
2022/04/28 01:00:59;;;;;;;;;;;;;;;17.84;54.36;101427.56;4755055;30;19922;-71
2022/04/28 01:03:46;;;;;;;;;;;;;;;17.87;54.76;101429.63;4751555;30;19922;-72
2022/04/28 01:06:30;;;;;;;;;;;;;;;17.91;54.91;101427.78;4749328;30;19923;-72
2022/04/28 01:09:16;;;;;;;;;;;;;;;17.90;54.69;101428.94;4735727;30;20538;-72
2022/04/28 01:12:00;;;;;;;;;;;;;;;17.93;54.73;101424.66;4752870;30;19922;-72
2022/04/28 01:14:47;;;;;;;;;;;;;;;17.92;54.83;101429.41;4752700;30;19926;-71
2022/04/28 01:17:32;;;;;;;;;;;;;;;17.92;55.13;101432.16;4753170;30;19922;-71
2022/04/28 01:20:22;;;;;;;;;;;;;;;17.84;54.22;101424.81;4752874;30;20294;-72
2022/04/28 01:23:07;;;;;;;;;;;;;;;17.79;53.87;101425.03;4753121;30;19922;-72
2022/04/28 01:25:52;;;;;;;;;;;;;;;17.79;55.05;101425.03;4754270;30;19922;-72
2022/04/28 01:28:36;;;;;;;;;;;;;;;17.79;54.94;101422.28;4752625;30;19922;-72
2022/04/28 01:31:22;;;;;;;;;;;;;;;17.79;55.18;101419.53;4752788;30;19922;-71
2022/04/28 01:34:10;;;;;;;;;;;;;;;17.73;54.52;101420.94;4746527;30;19926;-72
2022/04/28 01:36:56;;;;;;;;;;;;;;;17.61;52.33;101423.72;4751575;30;19926;-72
2022/04/28 01:39:41;;;;;;;;;;;;;;;17.35;50.76;101423.22;4756514;30;19923;-71
2022/04/28 01:42:25;;;;;;;;;;;;;;;17.31;51.59;101412.13;4752482;30;19922;-72
2022/04/28 01:45:11;;;;;;;;;;;;;;;17.46;52.63;101407.88;4752734;30;19922;-71
2022/04/28 01:48:11;;;;;;;;;;;;;;;17.51;52.71;101402.94;4751543;30;19922;-71
2022/04/28 01:57:42;;;;;;;;;;;;;;;17.20;51.59;101401.91;4739884;30;19923;-72
2022/04/28 02:00:38;;;;;;;;;;;;;;;17.28;52.10;101406.47;4735010;30;20315;-71
2022/04/28 02:03:27;;;;;;;;;;;;;;;17.23;52.12;101404.75;4734613;30;19922;-72
2022/04/28 02:06:16;;;;;;;;;;;;;;;17.28;52.78;101404.53;4734605;30;19923;-72
2022/04/28 02:09:01;;;;;;;;;;;;;;;17.15;52.12;101405.69;4745015;30;19941;-71
2022/04/28 02:11:47;;;;;;;;;;;;;;;17.28;53.64;101403.72;4751922;30;19926;-72
2022/04/28 02:14:55;;;;;;;;;;;;;;;17.43;54.91;101403.84;4751014;30;19930;-72
2022/04/28 02:18:02;;;;;;;;;;;;;;;17.48;55.31;101409.13;4737389;30;19923;-71
2022/04/28 02:20:46;;;;;;;;;;;;;;;17.52;55.49;101406.50;4734420;30;19927;-72
2022/04/28 02:23:30;;;;;;;;;;;;;;;17.40;53.57;101412.81;4734544;30;19923;-72
2022/04/28 02:26:16;;;;;;;;;;;;;;;17.16;51.03;101412.00;4741554;30;20291;-72
2022/04/28 02:29:01;;;;;;;;;;;;;;;16.96;50.80;101409.00;4744769;30;19922;-72
2022/04/28 02:31:51;;;;;;;;;;;;;;;17.09;52.33;101413.34;4751604;30;19923;-72
2022/04/28 02:34:35;;;;;;;;;;;;;;;17.28;54.49;101409.22;4756104;30;19926;-70
2022/04/28 02:37:20;;;;;;;;;;;;;;;17.35;55.17;101403.97;4751705;30;20366;-72
2022/04/28 02:40:05;;;;;;;;;;;;;;;17.41;55.63;101413.59;4752179;30;20295;-72
2022/04/28 02:42:49;;;;;;;;;;;;;;;17.37;55.43;101407.97;4751548;30;20298;-72
2022/04/28 02:45:34;;;;;;;;;;;;;;;17.38;55.74;101404.09;4754729;30;19926;-71
2022/04/28 02:48:18;;;;;;;;;;;;;;;17.41;55.82;101408.09;4769501;24;20453;-81
2022/04/28 02:51:03;;;;;;;;;;;;;;;17.45;56.03;101409.00;4749854;30;19927;-81
2022/04/28 02:53:52;;;;;;;;;;;;;;;17.40;54.97;101410.06;4766657;30;19927;-82
2022/04/28 02:56:37;;;;;;;;;;;;;;;17.40;55.76;101409.25;4750420;30;19922;-82
2022/04/28 02:59:23;;;;;;;;;;;;;;;17.39;55.95;101402.94;4737305;30;19931;-82
2022/04/28 03:02:09;;;;;;;;;;;;;;;17.39;55.95;101400.19;4751338;30;19930;-82
2022/04/28 03:04:54;;;;;;;;;;;;;;;17.32;54.71;101402.69;4737893;30;19931;-83
2022/04/28 03:10:51;;;;;;;;;;;;;;;17.36;56.09;101403.63;4736312;30;19923;-82
2022/04/28 03:13:39;;;;;;;;;;;;;;;17.36;56.24;101400.88;4749075;30;19927;-82
2022/04/28 03:16:24;;;;;;;;;;;;;;;17.39;56.33;101393.88;4738262;30;19923;-82
2022/04/28 03:19:24;;;;;;;;;;;;;;;17.37;56.28;101393.44;4733512;30;19923;-82
2022/04/28 03:22:09;;;;;;;;;;;;;;;17.33;56.50;101396.06;4745478;30;19923;-82
2022/04/28 03:24:54;;;;;;;;;;;;;;;17.30;55.63;101404.22;4749343;30;19922;-82
2022/04/28 03:27:38;;;;;;;;;;;;;;;17.18;54.31;101398.69;4737583;30;19922;-82
2022/04/28 03:30:23;;;;;;;;;;;;;;;17.17;54.75;101399.84;4736675;30;19922;-83
2022/04/28 03:33:26;;;;;;;;;;;;;;;17.20;55.67;101402.72;4742452;30;19926;-83
2022/04/28 03:39:14;;;;;;;;;;;;;;;17.26;56.56;101406.03;4731684;30;19922;-82
2022/04/28 03:41:59;;;;;;;;;;;;;;;17.27;56.67;101407.66;4754747;30;19922;-83
2022/04/28 03:44:43;;;;;;;;;;;;;;;17.28;56.87;101410.03;4751753;30;19927;-82
2022/04/28 03:47:31;;;;;;;;;;;;;;;17.26;56.83;101409.59;4737594;30;19923;-82
2022/04/28 03:50:16;;;;;;;;;;;;;;;17.27;56.72;101413.16;4738258;30;19924;-82
2022/04/28 03:53:01;;;;;;;;;;;;;;;17.28;56.78;101414.72;4751396;30;19931;-83
2022/04/28 03:55:45;;;;;;;;;;;;;;;17.27;56.80;101418.66;4737431;30;20338;-82
2022/04/28 03:58:30;;;;;;;;;;;;;;;17.24;56.89;101422.06;4730855;30;19922;-83
2022/04/28 04:01:15;;;;;;;;;;;;;;;17.26;56.88;101430.78;4736223;30;19922;-83
2022/04/28 04:04:23;;;;;;;;;;;;;;;17.22;57.00;101427.91;4740535;30;19922;-83
2022/04/28 04:07:14;;;;;;;;;;;;;;;17.21;57.01;101431.00;4742989;30;19923;-82
2022/04/28 04:10:19;;;;;;;;;;;;;;;17.21;56.80;101431.00;4742311;30;19922;-82
2022/04/28 04:13:06;;;;;;;;;;;;;;;17.19;56.88;101436.03;4750193;30;19926;-82
2022/04/28 04:15:59;;;;;;;;;;;;;;;17.22;57.11;101435.38;4740742;30;19922;-82
2022/04/28 04:18:50;;;;;;;;;;;;;;;17.20;57.20;101437.66;4740037;30;19922;-82
2022/04/28 04:21:46;;;;;;;;;;;;;;;17.20;57.15;101445.88;4738537;30;19923;-82
2022/04/28 04:24:30;;;;;;;;;;;;;;;17.17;57.18;101441.88;4736283;30;19922;-82
2022/04/28 04:27:15;;;;;;;;;;;;;;;17.20;57.20;101451.38;4739517;30;19922;-82
2022/04/28 04:33:24;;;;;;;;;;;;;;;17.17;57.21;101457.59;4738555;30;20396;-82
2022/04/28 04:36:08;;;;;;;;;;;;;;;17.12;56.92;101457.81;4739328;30;19931;-83
2022/04/28 04:38:53;;;;;;;;;;;;;;;17.03;56.05;101464.19;4739865;30;20320;-83
2022/04/28 04:41:37;;;;;;;;;;;;;;;16.98;55.15;101467.16;4741821;30;19922;-82
2022/04/28 04:44:24;;;;;;;;;;;;;;;16.98;55.83;101467.16;4751595;30;19922;-84
2022/04/28 04:47:08;;;;;;;;;;;;;;;16.95;55.78;101470.59;4740021;30;20312;-82
2022/04/28 04:50:12;;;;;;;;;;;;;;;16.98;56.64;101482.81;4742613;30;19927;-83
2022/04/28 04:53:17;;;;;;;;;;;;;;;17.03;57.01;101483.41;4754216;30;19927;-83
2022/04/28 04:56:01;;;;;;;;;;;;;;;17.02;57.23;101484.56;4736007;30;19926;-83
2022/04/28 04:58:47;;;;;;;;;;;;;;;16.93;56.01;101483.84;4751995;30;19926;-82
2022/04/28 05:01:31;;;;;;;;;;;;;;;16.91;55.94;101480.66;4742931;30;19930;-82
2022/04/28 05:04:50;;;;;;;;;;;;;;;16.81;55.18;101491.25;4738735;30;19923;-82
2022/04/28 05:08:04;;;;;;;;;;;;;;;16.89;56.77;101499.41;4741134;30;19923;-82
2022/04/28 05:10:49;;;;;;;;;;;;;;;16.87;56.69;101493.44;4739168;30;19922;-83
2022/04/28 05:13:34;;;;;;;;;;;;;;;16.77;55.47;101496.59;4754202;30;19927;-82
2022/04/28 05:16:22;;;;;;;;;;;;;;;16.52;54.03;101492.94;4740434;30;20347;-84
2022/04/28 05:19:20;;;;;;;;;;;;;;;16.42;53.29;101492.53;4738635;30;19928;-83
2022/04/28 05:22:28;;;;;;;;;;;;;;;16.33;54.01;101489.88;4740208;30;19922;-85
2022/04/28 05:25:31;;;;;;;;;;;;;;;16.03;53.51;101502.03;4739429;30;19934;-83
2022/04/28 05:28:35;;;;;;;;;;;;;;;16.01;53.64;101498.78;4733283;30;20312;-82
2022/04/28 05:31:37;;;;;;;;;;;;;;;15.91;53.71;101504.66;4737889;30;19930;-82
2022/04/28 05:34:30;;;;;;;;;;;;;;;15.88;53.89;101503.41;4745427;30;19931;-83
2022/04/28 05:37:17;;;;;;;;;;;;;;;16.13;55.33;101504.38;4742650;30;20332;-83
2022/04/28 05:40:05;;;;;;;;;;;;;;;16.21;55.42;101509.81;4737444;30;19922;-82
2022/04/28 05:45:53;;;;;;;;;;;;;;;16.37;56.12;101506.47;4739330;30;20404;-83
2022/04/28 05:48:37;;;;;;;;;;;;;;;16.47;56.64;101514.28;4739136;30;19926;-84
2022/04/28 05:51:22;;;;;;;;;;;;;;;16.37;55.29;101517.44;4741775;30;19922;-83
2022/04/28 05:54:07;;;;;;;;;;;;;;;16.45;56.35;101522.06;4739088;30;19926;-84
2022/04/28 05:56:52;;;;;;;;;;;;;;;16.43;56.40;101521.59;4738330;30;19923;-83
2022/04/28 05:59:37;;;;;;;;;;;;;;;16.47;56.79;101525.28;4753205;30;20169;-83
2022/04/28 06:02:42;;;;;;;;;;;;;;;16.45;56.42;101522.88;4742440;30;19922;-83
2022/04/28 06:05:35;;;;;;;;;;;;;;;16.45;56.73;101527.56;4748603;30;19922;-83
2022/04/28 06:08:21;;;;;;;;;;;;;;;16.55;57.70;101527.16;4747753;30;19926;-83
2022/04/28 06:11:05;;;;;;;;;;;;;;;16.55;57.72;101522.47;4739692;30;19923;-83
2022/04/28 06:13:50;;;;;;;;;;;;;;;16.61;57.71;101534.06;4742751;30;19934;-83
2022/04/28 06:17:10;;;;;;;;;;;;;;;16.65;58.15;101526.78;4740714;30;19922;-83
2022/04/28 06:19:55;;;;;;;;;;;;;;;16.63;57.65;101532.59;4750132;30;19926;-83
2022/04/28 06:22:58;;;;;;;;;;;;;;;16.71;58.34;101535.63;4740708;30;20396;-82
2022/04/28 06:25:44;;;;;;;;;;;;;;;16.72;58.63;101539.97;4740529;30;19923;-82
2022/04/28 06:28:29;;;;;;;;;;;;;;;16.67;57.70;101541.78;4739372;30;19922;-82
2022/04/28 06:31:15;;;;;;;;;;;;;;;16.64;56.84;101533.41;4742391;30;19923;-82
2022/04/28 06:34:21;;;;;;;;;;;;;;;16.63;56.25;101542.78;4752744;30;19927;-82
2022/04/28 06:37:05;;;;;;;;;;;;;;;16.67;57.07;101540.97;4738143;30;19922;-82
2022/04/28 06:39:52;;;;;;;;;;;;;;;16.65;56.66;101537.78;4752258;30;19922;-81
2022/04/28 06:42:44;;;;;;;;;;;;;;;16.72;57.31;101546.25;4737617;30;20400;-82
2022/04/28 06:46:11;;;;;;;;;;;;;;;16.73;56.64;101547.06;4745851;30;19922;-81
2022/04/28 06:49:04;;;;;;;;;;;;;;;16.77;57.06;101542.50;4731285;30;19922;-81
2022/04/28 06:52:07;;;;;;;;;;;;;;;16.74;55.91;101554.97;4745341;30;19922;-81
2022/04/28 06:55:19;;;;;;;;;;;;;;;16.78;55.05;101555.09;4738240;30;20387;-81
2022/04/28 06:58:10;;;;;;;;;;;;;;;16.83;55.11;101552.94;4752438;30;20329;-82
2022/04/28 07:00:58;;;;;;;;;;;;;;;16.82;54.41;101556.84;4737998;30;19926;-82
2022/04/28 07:03:43;;;;;;;;;;;;;;;16.91;55.25;101552.09;4742265;30;19927;-81
2022/04/28 07:06:27;;;;;;;;;;;;;;;17.03;56.83;101551.31;4753360;30;19926;-82
2022/04/28 07:09:12;;;;;;;;;;;;;;;17.04;54.25;101553.72;4738038;30;19923;-81
2022/04/28 07:11:57;;;;;;;;;;;;;;;17.07;55.77;101547.53;4720924;30;19927;-81
2022/04/28 07:15:00;;;;;;;;;;;;;;;17.14;55.98;101557.19;4744568;30;19927;-81
2022/04/28 07:17:51;;;;;;;;;;;;;;;17.16;56.42;101560.41;4739365;30;19923;-82
2022/04/28 07:20:35;;;;;;;;;;;;;;;17.18;54.88;101564.41;4738151;30;20308;-81
2022/04/28 07:23:20;;;;;;;;;;;;;;;17.21;52.73;101565.69;4738166;30;19922;-82
2022/04/28 07:26:05;;;;;;;;;;;;;;;17.26;53.78;101560.78;4739266;30;19941;-81
2022/04/28 07:28:50;;;;;;;;;;;;;;;17.30;53.17;101560.91;4738995;30;20317;-81
2022/04/28 07:32:13;;;;;;;;;;;;;;;17.37;54.09;101561.16;4749706;30;19922;-82
2022/04/28 07:35:17;;;;;;;;;;;;;;;17.38;52.08;101565.50;4745864;30;19926;-82
2022/04/28 07:38:22;;;;;;;;;;;;;;;17.46;53.41;101564.63;4730869;30;19930;-82
2022/04/28 07:41:26;;;;;;;;;;;;;;;17.49;54.38;101570.22;4744280;30;19922;-83
2022/04/28 07:44:11;;;;;;;;;;;;;;;17.54;52.85;101566.44;4754717;30;19923;-82
2022/04/28 07:46:57;;;;;;;;;;;;;;;17.56;52.52;101569.69;4745480;30;19930;-82
2022/04/28 07:49:51;;;;;;;;;;;;;;;17.62;53.18;101567.53;4757175;30;19922;-82
2022/04/28 07:52:40;;;;;;;;;;;;;;;17.67;52.92;101565.38;4741230;30;19923;-82
2022/04/28 07:55:32;;;;;;;;;;;;;;;17.71;49.88;101571.78;4751698;30;19926;-83
2022/04/28 07:58:23;;;;;;;;;;;;;;;17.75;53.00;101578.22;4729848;30;20440;-83
2022/04/28 08:01:42;;;;;;;;;;;;;;;17.79;51.35;101579.13;4723509;30;19922;-82
2022/04/28 08:04:32;;;;;;;;;;;;;;;17.81;47.68;101582.34;4722981;30;19923;-82
2022/04/28 08:07:23;;;;;;;;;;;;;;;17.90;50.07;101590.47;4726487;30;19922;-82
2022/04/28 08:10:15;;;;;;;;;;;;;;;17.93;48.88;101587.03;4750999;30;19922;-82
2022/04/28 08:13:05;;;;;;;;;;;;;;;17.99;49.36;101593.13;4757772;30;19922;-82
2022/04/28 08:16:22;;;;;;;;;;;;;;;18.07;48.82;101592.22;4736621;30;19926;-82
2022/04/28 08:19:12;;;;;;;;;;;;;;;18.13;46.74;101594.41;4752380;30;19923;-82
2022/04/28 08:22:06;;;;;;;;;;;;;;;18.22;47.18;101594.28;4739782;30;19922;-83
2022/04/28 08:24:57;;;;;;;;;;;;;;;18.26;46.81;101592.44;4755268;30;19926;-82
2022/04/28 08:27:47;;;;;;;;;;;;;;;18.30;48.12;101601.59;4740883;30;19922;-82
2022/04/28 08:30:37;;;;;;;;;;;;;;;18.35;46.10;101596.66;4746250;30;19922;-82
2022/04/28 08:33:27;;;;;;;;;;;;;;;18.42;46.69;101592.53;4751789;30;19926;-82
2022/04/28 08:36:17;;;;;;;;;;;;;;;18.51;46.55;101595.94;4734886;30;19922;-81
2022/04/28 08:39:11;;;;;;;;;;;;;;;18.57;44.69;101595.41;4739519;30;19922;-82
2022/04/28 08:42:01;;;;;;;;;;;;;;;18.69;43.23;101594.59;4741417;30;19923;-81
2022/04/28 08:45:06;;;;;;;;;;;;;;;18.79;43.01;101591.34;4744657;30;19923;-81
2022/04/28 08:48:02;;;;;;;;;;;;;;;18.83;43.25;101592.25;4770221;24;19931;-67
2022/04/28 08:51:09;;;;;;;;;;;;;;;18.92;43.75;101592.88;4732929;30;20295;-69
2022/04/28 08:54:01;;;;;;;;;;;;;;;18.99;45.41;101592.31;4738864;30;19926;-69
2022/04/28 08:56:52;;;;;;;;;;;;;;;19.10;43.84;101591.44;4736976;30;20411;-66
2022/04/28 08:59:43;;;;;;;;;;;;;;;19.16;43.11;101594.72;4737391;30;20289;-66
2022/04/28 09:02:34;;;;;;;;;;;;;;;19.22;42.03;101594.13;4735529;30;19922;-67
2022/04/28 09:05:35;;;;;;;;;;;;;;;19.35;42.68;101600.38;4741006;30;19927;-67
2022/04/28 09:09:04;;;;;;;;;;;;;;;19.44;41.11;101587.28;4719348;30;19922;-67
2022/04/28 09:12:10;;;;;;;;;;;;;;;19.64;36.67;101588.19;4735760;30;19922;-66
2022/04/28 09:15:18;;;;;;;;;;;;;;;19.66;39.44;101585.84;4737221;30;20303;-68
2022/04/28 09:18:21;;;;;;;;;;;;;;;19.79;37.70;101581.06;4732696;30;19925;-66
2022/04/28 09:21:11;;;;;;;;;;;;;;;19.88;37.63;101589.97;4726474;30;19922;-66
2022/04/28 09:24:03;;;;;;;;;;;;;;;20.03;35.24;101586.38;4733841;30;19922;-66
2022/04/28 09:26:56;;;;;;;;;;;;;;;20.15;34.52;101580.78;4734952;30;19922;-68
2022/04/28 09:29:47;;;;;;;;;;;;;;;20.28;32.64;101576.72;4731738;30;19926;-68
2022/04/28 09:32:40;;;;;;;;;;;;;;;20.49;31.17;101577.25;4732782;30;19923;-68
2022/04/28 09:35:32;;;;;;;;;;;;;;;20.64;31.72;101572.81;4731729;30;20392;-69
2022/04/28 09:38:39;;;;;;;;;;;;;;;20.74;31.49;101576.97;4725639;30;19923;-68
2022/04/28 09:44:46;;;;;;;;;;;;;;;20.73;30.99;101575.34;4732930;30;19923;-68
2022/04/28 09:47:38;;;;;;;;;;;;;;;20.88;31.50;101569.75;4734442;30;19922;-65
2022/04/28 09:50:30;;;;;;;;;;;;;;;20.91;31.46;101571.81;4731261;30;19922;-66
2022/04/28 09:53:51;;;;;;;;;;;;;;;20.97;30.85;101568.75;4733376;30;19930;-65
2022/04/28 09:56:52;;;;;;;;;;;;;;;21.04;31.63;101574.41;4740911;30;19922;-66
2022/04/28 09:59:46;;;;;;;;;;;;;;;21.14;30.95;101569.13;4716367;30;20129;-66
2022/04/28 10:02:36;;;;;;;;;;;;;;;21.22;30.01;101565.34;4722818;30;19923;-66
2022/04/28 10:05:28;;;;;;;;;;;;;;;21.28;31.38;101569.38;4709772;30;20319;-69
2022/04/28 10:08:39;;;;;;;;;;;;;;;21.22;31.11;101568.09;4712712;30;19930;-68
2022/04/28 10:11:30;;;;;;;;;;;;;;;21.34;29.29;101570.69;4716053;30;19922;-65
2022/04/28 10:14:22;;;;;;;;;;;;;;;21.44;30.83;101565.72;4710219;30;19927;-66
2022/04/28 10:17:27;;;;;;;;;;;;;;;21.53;30.82;101558.78;4710939;30;20400;-65
2022/04/28 10:20:35;;;;;;;;;;;;;;;21.60;30.85;101556.13;4708640;30;19923;-68
2022/04/28 10:33:21;;;;;;;;;;;;;;;21.88;31.57;101550.28;4699419;30;19923;-67
2022/04/28 10:36:20;;;;;;;;;;;;;;;21.87;30.71;101542.31;4730695;30;19926;-66
2022/04/28 10:39:10;;;;;;;;;;;;;;;21.94;30.87;101542.47;4716799;30;19923;-68
2022/04/28 10:41:59;;;;;;;;;;;;;;;22.01;30.61;101550.88;4716510;30;20307;-68
2022/04/28 10:44:54;;;;;;;;;;;;;;;22.00;29.67;101546.50;4716802;30;20256;-66
2022/04/28 10:47:43;;;;;;;;;;;;;;;22.12;30.86;101544.34;4716738;30;19923;-66
2022/04/28 10:50:34;;;;;;;;;;;;;;;21.96;32.38;101538.16;4716676;30;19923;-67
2022/04/28 10:53:23;;;;;;;;;;;;;;;22.20;30.15;101541.69;4716601;30;19923;-68
2022/04/28 10:56:13;;;;;;;;;;;;;;;22.23;30.38;101543.69;4715721;30;19930;-65
2022/04/28 10:59:21;;;;;;;;;;;;;;;22.28;30.34;101546.13;4719319;30;19923;-66
2022/04/28 11:02:17;;;;;;;;;;;;;;;22.28;31.28;101544.16;4713583;30;20387;-68
2022/04/28 11:05:24;;;;;;;;;;;;;;;22.33;29.86;101548.59;4719336;30;19923;-67
2022/04/28 11:08:24;;;;;;;;;;;;;;;22.35;30.47;101541.47;4716420;30;19922;-69
2022/04/28 11:11:14;;;;;;;;;;;;;;;22.43;31.61;101539.63;4712236;30;19931;-68
2022/04/28 11:14:03;;;;;;;;;;;;;;;22.30;37.33;101543.81;4709432;30;19923;-70
2022/04/28 11:16:57;;;;;;;;;;;;;;;21.95;32.60;101531.00;4732349;30;19922;-72
2022/04/28 11:19:46;;;;;;;;;;;;;;;26.30;24.47;101535.91;4731753;30;19926;-72
2022/04/28 11:22:43;;;;;;;;;;;;;;;30.77;19.20;101558.72;4718742;30;19926;-71
2022/04/28 11:25:32;;;;;;;;;;;;;;;29.54;20.34;101554.16;4702464;30;20297;-70
2022/04/28 11:28:22;;;;;;;;;;;;;;;33.09;17.46;101545.41;4714835;30;19923;-70
2022/04/28 11:31:18;;;;;;;;;;;;;;;33.39;16.15;101543.28;4718156;30;19926;-72
2022/04/28 11:34:09;;;;;;;;;;;;;;;32.25;17.46;101540.28;4707700;30;19923;-73
2022/04/28 11:37:12;;;;;;;;;;;;;;;27.87;22.31;101525.41;4727520;30;19923;-73
2022/04/28 11:40:03;;;;;;;;;;;;;;;29.12;20.40;101539.53;4716855;30;19923;-71
2022/04/28 11:42:58;;;;;;;;;;;;;;;30.21;18.76;101524.13;4723203;30;19923;-72
2022/04/28 11:45:47;;;;;;;;;;;;;;;25.71;24.01;101528.38;4707470;30;19923;-71
2022/04/28 11:48:38;;;;;;;;;;;;;;;26.03;24.94;101518.00;4702600;30;19923;-71
2022/04/28 11:51:28;;;;;;;;;;;;;;;27.34;23.50;101525.81;4719149;30;20399;-70
2022/04/28 11:54:21;;;;;;;;;;;;;;;27.27;22.86;101527.88;4706636;30;19923;-73
2022/04/28 11:57:11;;;;;;;;;;;;;;;29.94;20.31;101525.03;4701989;30;19923;-71
2022/04/28 12:00:01;;;;;;;;;;;;;;;33.50;16.99;101526.81;4714962;30;19923;-73
2022/04/28 12:02:58;;;;;;;;;;;;;;;31.32;19.65;101516.53;4719631;30;20204;-70
2022/04/28 12:05:51;;;;;;;;;;;;;;;31.05;18.62;101518.75;4719005;30;19923;-71
2022/04/28 12:08:40;;;;;;;;;;;;;;;28.81;21.62;101519.16;4718845;30;19923;-71
2022/04/28 12:14:37;;;;;;;;;;;;;;;28.71;21.07;101520.06;4717539;30;19927;-71
2022/04/28 12:20:32;;;;;;;;;;;;;;;31.66;17.30;101520.91;4721228;30;20521;-71
2022/04/28 12:23:30;;;;;;;;;;;;;;;31.11;18.89;101524.66;4724015;30;20303;-72
2022/04/28 12:26:24;;;;;;;;;;;;;;;31.90;17.78;101524.34;4727870;30;20300;-71
2022/04/28 12:29:19;;;;;;;;;;;;;;;30.73;18.34;101510.25;4717271;30;19923;-71
2022/04/28 12:32:08;;;;;;;;;;;;;;;30.27;18.63;101512.00;4714983;30;20375;-70
2022/04/28 12:35:03;;;;;;;;;;;;;;;32.70;17.78;101508.41;4718225;30;19935;-71
2022/04/28 12:37:58;;;;;;;;;;;;;;;31.50;17.79;101513.25;4718760;30;19922;-71
2022/04/28 12:40:47;;;;;;;;;;;;;;;29.80;19.95;101513.25;4718743;30;19923;-71
2022/04/28 12:43:38;;;;;;;;;;;;;;;30.98;18.14;101507.69;4715440;30;19926;-71
2022/04/28 12:46:33;;;;;;;;;;;;;;;30.02;19.97;101509.63;4701356;30;19923;-70
2022/04/28 12:49:23;;;;;;;;;;;;;;;30.41;19.03;101500.47;4701070;30;20376;-70
2022/04/28 12:52:25;;;;;;;;;;;;;;;30.37;19.29;101496.16;4700921;30;19923;-70
2022/04/28 12:55:17;;;;;;;;;;;;;;;29.26;20.13;101499.28;4714381;30;19931;-70
2022/04/28 12:58:09;;;;;;;;;;;;;;;30.00;19.78;101491.66;4700894;30;19927;-70
2022/04/28 13:00:59;;;;;;;;;;;;;;;29.60;20.11;101488.75;4703038;30;19923;-70
2022/04/28 13:03:56;;;;;;;;;;;;;;;29.38;20.33;101487.53;4700932;30;19924;-70
2022/04/28 13:06:46;;;;;;;;;;;;;;;29.18;20.87;101481.03;4721921;30;19927;-70
2022/04/28 13:09:36;;;;;;;;;;;;;;;28.60;22.30;101474.63;4726587;30;19935;-70
2022/04/28 13:12:25;;;;;;;;;;;;;;;26.87;24.05;101471.47;4713261;30;19922;-70
2022/04/28 13:15:15;;;;;;;;;;;;;;;26.95;23.79;101466.66;4712282;30;19927;-70
2022/04/28 13:18:05;;;;;;;;;;;;;;;26.62;23.67;101465.22;4718032;30;19923;-70
2022/04/28 13:20:55;;;;;;;;;;;;;;;27.41;23.17;101460.72;4717729;30;19974;-70
2022/04/28 13:23:45;;;;;;;;;;;;;;;27.07;23.46;101452.22;4719068;30;19923;-71
2022/04/28 13:26:35;;;;;;;;;;;;;;;25.03;25.57;101444.81;4725792;30;20423;-71
2022/04/28 13:29:24;;;;;;;;;;;;;;;26.09;24.99;101454.28;4718519;30;20363;-71
2022/04/28 13:32:14;;;;;;;;;;;;;;;25.88;24.54;101449.56;4721306;30;19923;-71
2022/04/28 13:35:03;;;;;;;;;;;;;;;26.00;24.33;101435.19;4728885;30;19926;-71
2022/04/28 13:37:53;;;;;;;;;;;;;;;25.67;25.22;101433.66;4717561;30;20296;-71
2022/04/28 13:40:43;;;;;;;;;;;;;;;25.13;26.42;101429.31;4717702;30;20304;-70
2022/04/28 13:43:33;;;;;;;;;;;;;;;24.35;27.19;101433.88;4722408;30;19923;-70
2022/04/28 13:46:22;;;;;;;;;;;;;;;23.86;28.02;101427.69;4722144;30;19923;-70
2022/04/28 13:49:12;;;;;;;;;;;;;;;23.97;27.89;101429.72;4717190;30;20312;-70
2022/04/28 13:52:01;;;;;;;;;;;;;;;24.25;27.65;101430.66;4717594;30;19923;-70
2022/04/28 13:54:51;;;;;;;;;;;;;;;24.22;28.35;101420.34;4708619;30;19927;-70
2022/04/28 13:57:41;;;;;;;;;;;;;;;23.92;28.67;101416.19;4713401;30;19923;-70
2022/04/28 14:00:30;;;;;;;;;;;;;;;23.95;28.84;101415.41;4714840;30;19923;-70
2022/04/28 14:03:24;;;;;;;;;;;;;;;23.87;28.68;101412.56;4715818;30;19923;-70
2022/04/28 14:06:15;;;;;;;;;;;;;;;24.13;28.76;101405.16;4719383;30;19922;-70
2022/04/28 14:09:05;;;;;;;;;;;;;;;23.24;30.30;101409.34;4710576;30;20313;-70
2022/04/28 14:11:55;;;;;;;;;;;;;;;23.47;30.54;101406.41;4727716;30;19922;-70
2022/04/28 14:14:45;;;;;;;;;;;;;;;22.72;31.26;101400.16;4723993;30;19923;-70
2022/04/28 14:17:35;;;;;;;;;;;;;;;22.94;29.95;101393.66;4717268;30;19923;-70
2022/04/28 14:20:25;;;;;;;;;;;;;;;22.64;30.56;101392.13;4716493;30;19922;-70
2022/04/28 14:23:14;;;;;;;;;;;;;;;22.45;31.19;101387.59;4711113;30;20311;-70
2022/04/28 14:26:04;;;;;;;;;;;;;;;22.30;32.51;101402.47;4713822;30;19923;-70
2022/04/28 14:28:54;;;;;;;;;;;;;;;22.31;31.75;101392.97;4715695;30;19923;-70
2022/04/28 14:31:43;;;;;;;;;;;;;;;21.93;32.02;101394.84;4723527;30;19923;-70
2022/04/28 14:34:33;;;;;;;;;;;;;;;22.36;32.09;101398.16;4713013;30;19922;-70
2022/04/28 14:37:22;;;;;;;;;;;;;;;22.33;32.96;101387.84;4699421;30;19931;-70
2022/04/28 14:40:12;;;;;;;;;;;;;;;22.25;32.43;101377.88;4704276;30;19923;-70
2022/04/28 14:43:02;;;;;;;;;;;;;;;21.88;33.24;101392.41;4709869;30;19927;-70
2022/04/28 14:45:52;;;;;;;;;;;;;;;21.73;32.51;101390.63;4716443;30;20250;-70
2022/04/28 14:55:02;;;;;;;;;;;;;;;21.66;32.62;101390.50;4732941;30;19926;-78
2022/04/28 14:57:52;;;;;;;;;;;;;;;21.81;32.69;101389.53;4737167;30;19922;-77
2022/04/28 15:00:42;;;;;;;;;;;;;;;21.92;33.09;101390.47;4736057;30;19926;-75
2022/04/28 15:03:35;;;;;;;;;;;;;;;21.58;32.94;101389.63;4739019;30;19923;-78
2022/04/28 15:06:25;;;;;;;;;;;;;;;21.59;32.77;101384.88;4737442;30;19922;-77
2022/04/28 15:09:15;;;;;;;;;;;;;;;21.84;32.95;101391.53;4735293;30;19922;-76
2022/04/28 15:12:04;;;;;;;;;;;;;;;21.64;33.86;101387.31;4737052;30;19922;-77
2022/04/28 15:14:54;;;;;;;;;;;;;;;21.38;34.54;101388.13;4738167;30;19922;-77
2022/04/28 15:17:44;;;;;;;;;;;;;;;21.43;33.78;101381.47;4738561;30;20180;-77
2022/04/28 15:20:34;;;;;;;;;;;;;;;21.26;33.90;101383.59;4737725;30;19926;-77
2022/04/28 15:23:23;;;;;;;;;;;;;;;21.29;33.15;101380.06;4722949;30;19923;-77
2022/04/28 15:26:13;;;;;;;;;;;;;;;21.49;32.54;101386.31;4720693;30;19923;-77